Time;durP1;ratioP1;P1;durP2;ratioP2;P2;SDS_P1;SDS_P2;PMS_P1;PMS_P2;Temp;Humidity;BMP_temperature;BMP_pressure;BME280_temperature;BME280_humidity;BME280_pressure;Samples;Min_cycle;Max_cycle;Signal;HPM_P1;HPM_P2
2024/01/01 00:02:08;;;;;;;533.35;270.95;;;;;;;5.97;100.00;97139.31;5015801;28;20029;-57
2024/01/01 00:04:33;;;;;;;403.90;193.68;;;;;;;5.97;100.00;97140.19;5018617;28;20032;-57
2024/01/01 00:06:59;;;;;;;503.58;210.00;;;;;;;6.02;100.00;97139.34;5014506;28;20095;-57
2024/01/01 00:09:24;;;;;;;481.23;208.63;;;;;;;5.84;100.00;97139.34;5018889;28;20128;-59
2024/01/01 00:11:49;;;;;;;476.83;212.95;;;;;;;5.83;100.00;97137.59;5017628;28;20029;-58
2024/01/01 00:14:15;;;;;;;500.42;213.73;;;;;;;5.85;100.00;97140.19;5023736;28;20274;-58
2024/01/01 00:16:41;;;;;;;432.85;226.13;;;;;;;5.82;100.00;97147.91;5017362;28;20057;-56
2024/01/01 00:19:06;;;;;;;470.67;218.55;;;;;;;5.97;100.00;97144.50;5017009;28;20103;-57
2024/01/01 00:21:32;;;;;;;449.88;217.15;;;;;;;5.92;100.00;97146.22;5017195;28;20042;-57
2024/01/01 00:23:57;;;;;;;380.17;196.18;;;;;;;5.96;100.00;97151.38;5016400;28;20036;-57
2024/01/01 00:26:23;;;;;;;374.83;204.32;;;;;;;5.85;100.00;97150.50;5017830;28;20551;-57
2024/01/01 00:28:48;;;;;;;435.17;218.18;;;;;;;5.78;100.00;97144.47;5018279;28;20052;-60
2024/01/01 00:31:13;;;;;;;472.10;226.02;;;;;;;5.53;100.00;97141.81;5015814;28;20398;-57
2024/01/01 00:33:39;;;;;;;393.65;217.10;;;;;;;5.59;100.00;97130.66;5018065;28;20417;-57
2024/01/01 00:36:04;;;;;;;478.73;206.02;;;;;;;5.57;100.00;97132.38;5015717;28;20477;-58
2024/01/01 00:38:30;;;;;;;448.70;216.43;;;;;;;5.37;100.00;97133.19;5017418;28;20116;-58
2024/01/01 00:40:55;;;;;;;430.08;211.43;;;;;;;5.53;100.00;97128.06;5015867;28;20092;-59
2024/01/01 00:43:21;;;;;;;448.85;208.35;;;;;;;5.58;100.00;97118.63;5016659;28;20401;-58
2024/01/01 00:45:46;;;;;;;505.27;260.17;;;;;;;5.58;100.00;97110.88;5017014;28;20117;-56
2024/01/01 00:48:12;;;;;;;525.58;213.48;;;;;;;5.43;100.00;97119.44;5017366;28;20025;-58
2024/01/01 00:50:37;;;;;;;428.75;204.13;;;;;;;5.65;100.00;97122.06;5017524;28;20382;-58
2024/01/01 00:53:03;;;;;;;532.60;213.40;;;;;;;5.52;100.00;97127.19;5015550;28;20120;-59
2024/01/01 00:55:28;;;;;;;404.73;210.95;;;;;;;5.63;100.00;97126.34;5017733;28;20266;-58
2024/01/01 00:57:54;;;;;;;408.60;208.95;;;;;;;5.64;100.00;97131.53;5017897;28;20100;-59
2024/01/01 01:00:19;;;;;;;409.55;214.93;;;;;;;5.92;100.00;97138.47;5017710;28;20017;-57
2024/01/01 01:02:44;;;;;;;443.55;218.07;;;;;;;6.03;100.00;97133.31;5015228;28;20040;-58
2024/01/01 01:05:10;;;;;;;546.13;223.73;;;;;;;5.81;100.00;97134.16;5011821;28;20029;-61
2024/01/01 01:07:36;;;;;;;429.48;221.27;;;;;;;5.77;100.00;97139.28;5013040;28;20684;-58
2024/01/01 01:10:04;;;;;;;495.85;223.05;;;;;;;5.75;100.00;97134.13;5012461;28;20079;-57
2024/01/01 01:12:29;;;;;;;464.08;228.02;;;;;;;5.59;100.00;97134.13;5012791;28;20053;-58
2024/01/01 01:14:55;;;;;;;535.97;279.70;;;;;;;5.18;100.00;97132.22;5012767;28;20032;-57
2024/01/01 01:17:20;;;;;;;466.92;214.40;;;;;;;5.06;100.00;97138.22;5012530;28;20030;-56
2024/01/01 01:19:45;;;;;;;501.35;208.45;;;;;;;4.93;100.00;97134.69;5014746;28;20037;-58
2024/01/01 01:22:11;;;;;;;595.60;208.82;;;;;;;5.00;100.00;97146.75;5011567;28;20052;-58
2024/01/01 01:24:36;;;;;;;473.38;258.65;;;;;;;5.18;100.00;97145.13;5014989;28;20037;-56
2024/01/01 01:27:02;;;;;;;494.80;215.50;;;;;;;5.13;100.00;97152.84;5012425;28;20413;-57
2024/01/01 01:29:28;;;;;;;497.48;213.35;;;;;;;5.13;100.00;97149.41;5013363;28;20493;-57
2024/01/01 01:31:53;;;;;;;473.88;220.85;;;;;;;5.14;100.00;97154.56;5013915;28;20223;-57
2024/01/01 01:34:19;;;;;;;450.70;201.77;;;;;;;5.27;100.00;97152.91;5011449;28;21099;-57
2024/01/01 01:36:45;;;;;;;517.90;209.38;;;;;;;5.41;100.00;97145.22;5012241;28;20475;-56
2024/01/01 01:39:11;;;;;;;581.30;212.30;;;;;;;5.47;100.00;97154.72;5012146;28;20501;-57
2024/01/01 01:41:38;;;;;;;514.88;329.15;;;;;;;5.38;100.00;97154.69;5013403;28;20447;-57
2024/01/01 01:44:04;;;;;;;578.38;221.88;;;;;;;5.72;100.00;97147.03;5012325;28;20026;-59
2024/01/01 01:46:30;;;;;;;463.25;243.50;;;;;;;5.73;100.00;97146.19;5028094;28;20025;-58
2024/01/01 01:48:57;;;;;;;455.67;220.60;;;;;;;5.75;100.00;97148.78;5013681;28;20544;-56
2024/01/01 01:51:24;;;;;;;494.83;227.75;;;;;;;5.64;100.00;97141.84;5010295;28;20053;-56
2024/01/01 01:53:50;;;;;;;486.02;257.55;;;;;;;5.99;100.00;97142.78;5012132;28;20230;-56
2024/01/01 01:56:17;;;;;;;495.10;209.13;;;;;;;5.84;100.00;97136.75;5010950;28;20049;-56
2024/01/01 01:58:43;;;;;;;475.63;257.95;;;;;;;5.61;100.00;97136.69;5014439;28;20045;-55
2024/01/01 02:01:10;;;;;;;556.38;245.20;;;;;;;5.72;100.00;97134.16;5015629;28;20038;-57
2024/01/01 02:03:35;;;;;;;470.90;213.07;;;;;;;5.82;100.00;97135.88;5017051;28;20136;-57
2024/01/01 02:06:00;;;;;;;455.10;190.80;;;;;;;5.83;100.00;97134.16;5016711;28;20577;-57
2024/01/01 02:08:26;;;;;;;488.65;226.95;;;;;;;5.70;100.00;97125.53;5016083;28;20103;-57
2024/01/01 02:10:51;;;;;;;478.00;209.77;;;;;;;5.62;100.00;97132.38;5015738;28;20515;-57
2024/01/01 02:13:28;;;;;;;505.85;204.02;;;;;;;5.83;100.00;97123.84;5015983;28;20556;-57
2024/01/01 02:15:54;;;;;;;549.50;339.77;;;;;;;5.67;100.00;97130.66;5015545;28;20152;-57
2024/01/01 02:18:20;;;;;;;541.05;191.80;;;;;;;5.76;100.00;97122.97;5004225;28;20063;-58
2024/01/01 02:20:45;;;;;;;449.50;186.77;;;;;;;5.80;100.00;97123.84;5017432;28;20045;-57
2024/01/01 02:23:10;;;;;;;490.20;199.32;;;;;;;5.97;100.00;97127.28;5015115;28;20111;-57
2024/01/01 02:25:36;;;;;;;428.23;189.02;;;;;;;5.82;100.00;97130.72;5015225;28;20041;-58
2024/01/01 02:28:01;;;;;;;411.85;193.63;;;;;;;5.71;100.00;97127.25;5016421;28;20029;-57
2024/01/01 02:30:26;;;;;;;421.48;195.20;;;;;;;5.74;100.00;97135.00;5013774;28;20328;-57
2024/01/01 02:32:52;;;;;;;479.08;227.40;;;;;;;5.68;100.00;97137.56;5018189;28;20114;-57
2024/01/01 02:35:17;;;;;;;551.53;216.18;;;;;;;5.68;100.00;97137.56;5016962;28;20033;-58
2024/01/01 02:37:42;;;;;;;447.00;224.45;;;;;;;5.74;100.00;97142.75;5017843;28;20210;-58
2024/01/01 02:40:08;;;;;;;499.70;198.35;;;;;;;5.66;100.00;97149.59;5016656;28;20477;-58
2024/01/01 02:42:34;;;;;;;399.92;196.20;;;;;;;5.87;100.00;97148.81;5019001;28;20055;-57
2024/01/01 02:45:00;;;;;;;415.42;226.63;;;;;;;5.80;100.00;97142.78;5017725;28;20697;-57
2024/01/01 02:47:25;;;;;;;420.55;223.60;;;;;;;5.79;100.00;97145.34;5017018;28;20493;-58
2024/01/01 02:49:50;;;;;;;469.15;219.88;;;;;;;5.72;100.00;97147.88;5017584;28;20473;-58
2024/01/01 02:52:16;;;;;;;544.05;288.52;;;;;;;5.86;100.00;97137.59;5016819;28;20041;-56
2024/01/01 02:54:41;;;;;;;457.15;210.07;;;;;;;5.79;100.00;97140.19;5017148;28;20025;-57
2024/01/01 02:57:06;;;;;;;496.65;223.10;;;;;;;5.58;100.00;97134.09;5016877;28;20040;-57
2024/01/01 02:59:33;;;;;;;454.23;216.52;;;;;;;5.45;100.00;97136.63;5018350;28;20014;-56
2024/01/01 03:01:59;;;;;;;464.10;210.70;;;;;;;5.51;100.00;97132.34;5018099;28;20030;-57
2024/01/01 03:04:24;;;;;;;441.92;233.85;;;;;;;5.56;100.00;97134.09;5017328;28;20025;-57
2024/01/01 03:06:50;;;;;;;435.38;208.85;;;;;;;5.84;100.00;97135.88;5017739;28;20056;-57
2024/01/01 03:09:15;;;;;;;549.53;231.27;;;;;;;5.73;100.00;97141.88;5015361;28;20128;-57
2024/01/01 03:11:40;;;;;;;458.70;218.93;;;;;;;5.71;100.00;97141.00;5017594;28;20048;-57
2024/01/01 03:14:06;;;;;;;456.63;227.05;;;;;;;5.78;100.00;97144.47;5016952;28;20029;-56
2024/01/01 03:16:32;;;;;;;434.90;207.63;;;;;;;5.88;100.00;97137.63;5018448;28;20087;-56
2024/01/01 03:18:58;;;;;;;471.73;242.45;;;;;;;6.08;100.00;97145.41;5017357;28;20116;-58
2024/01/01 03:21:23;;;;;;;511.02;205.75;;;;;;;5.93;100.00;97137.59;5016106;28;20187;-58
2024/01/01 03:23:49;;;;;;;460.92;207.40;;;;;;;5.86;100.00;97135.03;5017021;28;20111;-57
2024/01/01 03:26:14;;;;;;;589.67;279.13;;;;;;;5.82;100.00;97133.28;5016088;28;20089;-57
2024/01/01 03:28:39;;;;;;;420.50;213.20;;;;;;;5.91;100.00;97136.75;5018075;28;20134;-57
2024/01/01 03:31:05;;;;;;;436.95;201.35;;;;;;;5.78;100.00;97139.31;5016930;28;20033;-58
2024/01/01 03:33:33;;;;;;;522.50;338.30;;;;;;;5.92;100.00;97136.75;5016491;28;20120;-57
2024/01/01 03:35:59;;;;;;;422.20;239.38;;;;;;;5.92;100.00;97134.19;5017514;28;20540;-57
2024/01/01 03:38:24;;;;;;;563.92;246.82;;;;;;;5.90;100.00;97128.13;5016449;28;20018;-57
2024/01/01 03:40:50;;;;;;;483.08;228.23;;;;;;;5.78;100.00;97128.97;5015949;28;20183;-55
2024/01/01 03:43:15;;;;;;;539.63;217.00;;;;;;;5.74;100.00;97129.84;5016218;28;20025;-56
2024/01/01 03:45:41;;;;;;;459.67;233.02;;;;;;;5.73;100.00;97125.53;5016631;28;20037;-56
2024/01/01 03:48:08;;;;;;;415.65;212.38;;;;;;;5.66;100.00;97134.13;5016545;28;20345;-55
2024/01/01 03:50:33;;;;;;;400.88;207.15;;;;;;;5.53;100.00;97123.75;5015714;28;20072;-57
2024/01/01 03:52:58;;;;;;;458.92;224.52;;;;;;;5.42;100.00;97131.47;5017898;28;20079;-57
2024/01/01 03:55:24;;;;;;;542.47;211.80;;;;;;;5.38;100.00;97136.63;5015217;28;20515;-57
2024/01/01 03:57:49;;;;;;;431.77;207.55;;;;;;;5.69;100.00;97139.28;5016536;28;20014;-58
2024/01/01 04:00:15;;;;;;;493.13;210.80;;;;;;;5.58;100.00;97141.84;5014692;28;20640;-56
2024/01/01 04:02:40;;;;;;;417.17;235.82;;;;;;;5.74;100.00;97137.56;5017042;28;20609;-56
2024/01/01 04:05:07;;;;;;;467.17;293.00;;;;;;;5.69;100.00;97140.16;5016395;28;20393;-56
2024/01/01 04:07:34;;;;;;;401.15;197.45;;;;;;;5.63;100.00;97150.44;5017938;28;20084;-56
2024/01/01 04:09:59;;;;;;;438.20;215.77;;;;;;;5.68;100.00;97145.31;5016561;28;20460;-55
2024/01/01 04:12:25;;;;;;;498.40;200.90;;;;;;;5.82;100.00;97145.31;5004487;28;20505;-54
2024/01/01 04:14:50;;;;;;;473.40;253.30;;;;;;;6.23;100.00;97141.97;5014803;28;20036;-54
2024/01/01 04:17:15;;;;;;;539.28;221.10;;;;;;;5.96;100.00;97153.97;5014183;28;20037;-55
2024/01/01 04:19:44;;;;;;;417.45;203.68;;;;;;;5.82;100.00;97159.09;5016372;28;20029;-56
2024/01/01 04:22:10;;;;;;;453.50;227.30;;;;;;;6.03;100.00;97154.88;5013956;28;20028;-55
2024/01/01 04:24:35;;;;;;;406.00;217.48;;;;;;;6.16;100.00;97144.56;5017258;28;20252;-55
2024/01/01 04:27:02;;;;;;;477.17;264.23;;;;;;;5.65;100.00;97153.03;5014569;28;20039;-56
2024/01/01 04:29:27;;;;;;;527.20;232.40;;;;;;;5.66;100.00;97150.47;5015408;28;20543;-59
2024/01/01 04:31:52;;;;;;;438.50;210.32;;;;;;;5.79;100.00;97153.09;5015678;28;20038;-56
2024/01/01 04:34:18;;;;;;;579.28;237.27;;;;;;;5.46;100.00;97153.00;5014741;28;20028;-54
2024/01/01 04:36:44;;;;;;;460.63;260.35;;;;;;;5.29;100.00;97140.88;5014738;28;20025;-55
2024/01/01 04:39:09;;;;;;;408.55;202.90;;;;;;;5.43;100.00;97142.66;5016256;28;20512;-56
2024/01/01 04:41:34;;;;;;;462.58;279.95;;;;;;;5.58;100.00;97141.84;5014085;28;20453;-54
2024/01/01 04:44:00;;;;;;;519.35;324.20;;;;;;;5.81;100.00;97139.31;5015282;28;20038;-55
2024/01/01 04:46:25;;;;;;;536.13;218.88;;;;;;;5.96;100.00;97147.94;5014313;28;20168;-57
2024/01/01 04:48:50;;;;;;;500.42;218.30;;;;;;;5.98;100.00;97156.56;5016295;28;20854;-55
2024/01/01 04:51:16;;;;;;;551.38;223.15;;;;;;;5.98;100.00;97162.56;5013127;28;20045;-56
2024/01/01 04:53:41;;;;;;;431.52;207.88;;;;;;;5.93;100.00;97158.25;5016407;28;20053;-55
2024/01/01 04:56:06;;;;;;;402.85;197.00;;;;;;;5.90;100.00;97163.44;5015761;28;20056;-57
2024/01/01 04:58:33;;;;;;;449.75;215.90;;;;;;;5.72;100.00;97154.78;5013984;28;20132;-56
2024/01/01 05:00:59;;;;;;;441.10;246.38;;;;;;;5.62;100.00;97159.06;5015696;28;20034;-56
2024/01/01 05:03:24;;;;;;;454.45;215.20;;;;;;;5.55;100.00;97163.34;5015175;28;20028;-55
2024/01/01 05:05:49;;;;;;;491.90;238.27;;;;;;;5.53;100.00;97164.19;5014026;28;20034;-56
2024/01/01 05:08:15;;;;;;;509.40;215.35;;;;;;;5.51;100.00;97165.88;5015220;28;20021;-56
2024/01/01 05:10:40;;;;;;;412.13;210.73;;;;;;;5.77;100.00;97165.97;5014349;28;20156;-56
2024/01/01 05:13:07;;;;;;;444.38;213.85;;;;;;;5.56;100.00;97152.16;5015423;28;20112;-56
2024/01/01 05:15:33;;;;;;;430.50;235.48;;;;;;;5.73;100.00;97152.19;5014559;28;20077;-56
2024/01/01 05:17:58;;;;;;;497.20;245.65;;;;;;;5.65;100.00;97158.19;5014224;28;20566;-58
2024/01/01 05:20:24;;;;;;;527.25;225.55;;;;;;;5.60;100.00;97161.63;5014016;28;20131;-56
2024/01/01 05:22:49;;;;;;;490.80;224.40;;;;;;;5.79;100.00;97164.25;5014839;28;20450;-56
2024/01/01 05:25:14;;;;;;;522.10;293.27;;;;;;;5.64;100.00;97154.75;5013824;28;20192;-56
2024/01/01 05:27:40;;;;;;;460.13;225.80;;;;;;;5.81;100.00;97165.13;5016261;28;20014;-55
2024/01/01 05:30:06;;;;;;;494.98;263.17;;;;;;;5.84;100.00;97175.47;5016414;28;22036;-57
2024/01/01 05:32:33;;;;;;;552.83;234.80;;;;;;;5.90;100.00;97174.59;5015714;28;20049;-56
2024/01/01 05:34:58;;;;;;;457.67;223.90;;;;;;;6.04;100.00;97161.75;5019791;28;20670;-57
2024/01/01 05:37:23;;;;;;;530.55;237.68;;;;;;;5.78;100.00;97175.44;5017569;28;20729;-56
2024/01/01 05:39:49;;;;;;;495.65;224.50;;;;;;;5.76;100.00;97179.75;5019099;28;20486;-56
2024/01/01 05:42:14;;;;;;;474.30;241.85;;;;;;;5.72;100.00;97178.84;5017545;28;20490;-55
2024/01/01 05:44:39;;;;;;;470.10;312.17;;;;;;;5.63;100.00;97181.41;5019366;28;20025;-56
2024/01/01 05:47:05;;;;;;;483.48;262.17;;;;;;;5.71;100.00;97184.88;5019711;28;20052;-57
2024/01/01 05:49:30;;;;;;;597.08;280.25;;;;;;;5.74;100.00;97184.03;5018403;28;20531;-57
2024/01/01 05:51:55;;;;;;;507.58;267.45;;;;;;;5.66;100.00;97180.56;5017641;28;20045;-56
2024/01/01 05:54:21;;;;;;;555.35;246.15;;;;;;;5.81;100.00;97193.50;5017349;28;20056;-56
2024/01/01 05:56:46;;;;;;;550.88;255.65;;;;;;;5.86;100.00;97189.22;5018359;28;20195;-56
2024/01/01 05:59:11;;;;;;;521.03;268.73;;;;;;;5.85;100.00;97190.09;5019556;28;20405;-57
2024/01/01 06:01:37;;;;;;;424.73;212.60;;;;;;;5.75;100.00;97184.91;5018261;28;20041;-57
2024/01/01 06:04:02;;;;;;;509.25;231.45;;;;;;;5.70;100.00;97187.44;5019672;28;20372;-56
2024/01/01 06:06:27;;;;;;;545.83;268.83;;;;;;;5.79;100.00;97187.47;5016960;28;20543;-56
2024/01/01 06:08:53;;;;;;;495.65;244.95;;;;;;;5.90;100.00;97184.91;5017865;28;20107;-56
2024/01/01 06:11:18;;;;;;;525.35;221.75;;;;;;;5.49;100.00;97180.50;5014865;28;20183;-56
2024/01/01 06:13:45;;;;;;;523.10;252.35;;;;;;;5.64;100.00;97185.69;5018466;28;20128;-56
2024/01/01 06:16:13;;;;;;;502.25;275.00;;;;;;;5.37;100.00;97181.28;5016802;28;20057;-58
2024/01/01 06:18:39;;;;;;;475.60;227.57;;;;;;;5.43;100.00;97184.78;5018649;28;20025;-55
2024/01/01 06:21:04;;;;;;;539.70;399.23;;;;;;;5.55;100.00;97201.16;5017898;28;20025;-57
2024/01/01 06:23:30;;;;;;;495.05;248.80;;;;;;;5.76;100.00;97200.38;5017309;28;20030;-57
2024/01/01 06:25:56;;;;;;;469.17;224.85;;;;;;;5.69;100.00;97201.22;5017794;28;20043;-56
2024/01/01 06:28:21;;;;;;;592.08;248.10;;;;;;;5.68;100.00;97207.22;5018041;28;20024;-56
2024/01/01 06:30:47;;;;;;;548.45;244.30;;;;;;;5.58;100.00;97214.06;5017467;28;20037;-56
2024/01/01 06:33:12;;;;;;;448.15;216.00;;;;;;;5.93;100.00;97212.44;5015863;28;20022;-55
2024/01/01 06:35:37;;;;;;;451.08;220.40;;;;;;;5.97;100.00;97215.06;5015859;28;20377;-58
2024/01/01 06:38:03;;;;;;;469.13;234.05;;;;;;;5.84;100.00;97215.88;5017349;28;20284;-56
2024/01/01 06:40:28;;;;;;;531.95;249.60;;;;;;;5.83;100.00;97217.59;5015765;28;20049;-57
2024/01/01 06:42:54;;;;;;;467.30;229.85;;;;;;;5.93;100.00;97218.47;5017594;28;20393;-57
2024/01/01 06:45:19;;;;;;;529.78;225.25;;;;;;;5.97;100.00;97217.63;5015497;28;20053;-56
2024/01/01 06:47:45;;;;;;;515.45;223.10;;;;;;;5.73;100.00;97227.00;5017882;28;20112;-55
2024/01/01 06:50:10;;;;;;;469.13;243.60;;;;;;;5.75;100.00;97221.84;5016742;28;20060;-56
2024/01/01 06:52:35;;;;;;;482.63;222.98;;;;;;;5.68;100.00;97220.97;5015900;28;20026;-56
2024/01/01 06:55:01;;;;;;;509.80;223.80;;;;;;;5.79;100.00;97235.66;5018289;28;20455;-57
2024/01/01 06:57:26;;;;;;;516.38;238.02;;;;;;;5.43;100.00;97238.94;5016060;28;20243;-56
2024/01/01 06:59:52;;;;;;;503.08;227.80;;;;;;;5.46;100.00;97240.69;5015594;28;20028;-57
2024/01/01 07:02:17;;;;;;;488.13;230.75;;;;;;;5.34;100.00;97244.91;5014990;28;20454;-55
2024/01/01 07:04:43;;;;;;;454.67;220.10;;;;;;;5.44;100.00;97248.41;5017900;28;20037;-57
2024/01/01 07:07:08;;;;;;;461.25;222.27;;;;;;;5.54;100.00;97254.47;5017396;28;20029;-56
2024/01/01 07:09:34;;;;;;;539.20;217.95;;;;;;;5.53;100.00;97250.16;5016353;28;20469;-56
2024/01/01 07:12:19;;;;;;;520.65;227.80;;;;;;;5.65;100.00;97243.34;5018072;28;20516;-57
2024/01/01 07:14:46;;;;;;;469.95;207.75;;;;;;;5.50;100.00;97250.16;5016036;28;20051;-57
2024/01/01 07:17:11;;;;;;;465.08;220.10;;;;;;;5.50;100.00;97257.91;4998713;28;20033;-57
2024/01/01 07:19:36;;;;;;;457.83;221.07;;;;;;;5.41;100.00;97253.53;4996811;28;20079;-55
2024/01/01 07:22:02;;;;;;;462.25;222.15;;;;;;;5.53;100.00;97262.19;4997090;28;20038;-56
2024/01/01 07:24:29;;;;;;;524.50;243.50;;;;;;;5.60;100.00;97269.97;4996026;28;20053;-56
2024/01/01 07:26:54;;;;;;;508.60;214.18;;;;;;;5.53;100.00;97263.03;4996227;28;20330;-56
2024/01/01 07:29:19;;;;;;;520.15;221.98;;;;;;;5.58;100.00;97263.09;4995753;28;20313;-56
2024/01/01 07:31:45;;;;;;;512.63;269.10;;;;;;;5.60;100.00;97253.63;4996009;28;20409;-57
2024/01/01 07:34:10;;;;;;;485.60;223.18;;;;;;;5.46;100.00;97261.31;4997743;28;20033;-56
2024/01/01 07:36:36;;;;;;;624.42;253.85;;;;;;;5.39;100.00;97256.97;4994467;28;20049;-57
2024/01/01 07:39:01;;;;;;;492.98;238.20;;;;;;;5.69;100.00;97263.13;4997276;28;20033;-57
2024/01/01 07:41:26;;;;;;;561.15;252.57;;;;;;;5.69;100.00;97265.72;4994113;28;20199;-57
2024/01/01 07:43:51;;;;;;;551.83;252.63;;;;;;;5.33;100.00;97256.09;4996065;28;20075;-56
2024/01/01 07:46:17;;;;;;;491.63;250.15;;;;;;;5.43;100.00;97261.28;4996367;28;20122;-56
2024/01/01 07:48:42;;;;;;;552.90;288.45;;;;;;;5.42;100.00;97254.41;4995579;28;20022;-56
2024/01/01 07:51:08;;;;;;;496.63;242.48;;;;;;;5.70;100.00;97251.94;4995346;28;20042;-58
2024/01/01 07:53:33;;;;;;;563.78;265.65;;;;;;;5.49;100.00;97251.00;4996310;28;20064;-57
2024/01/01 07:56:04;;;;;;;481.80;251.43;;;;;;;5.66;100.00;97265.69;5002496;28;20321;-58
2024/01/01 07:58:30;;;;;;;528.40;237.15;;;;;;;5.76;100.00;97264.91;5016105;28;20417;-58
2024/01/01 08:00:55;;;;;;;485.83;232.02;;;;;;;5.75;100.00;97268.31;5015833;28;20546;-58
2024/01/01 08:03:21;;;;;;;478.58;209.30;;;;;;;5.86;100.00;97252.88;5014638;28;20033;-55
2024/01/01 08:05:46;;;;;;;489.42;302.25;;;;;;;6.14;100.00;97258.16;5016304;28;20059;-57
2024/01/01 08:08:12;;;;;;;439.98;210.93;;;;;;;5.99;100.00;97267.53;5016504;28;20026;-57
2024/01/01 08:10:38;;;;;;;600.95;288.30;;;;;;;5.90;100.00;97261.50;5016098;28;20036;-58
2024/01/01 08:13:03;;;;;;;452.48;228.55;;;;;;;6.00;100.00;97265.81;5015589;28;20033;-56
2024/01/01 08:15:29;;;;;;;612.35;289.58;;;;;;;5.98;100.00;97264.97;5013793;28;20033;-58
2024/01/01 08:17:54;;;;;;;484.58;230.30;;;;;;;6.24;100.00;97266.81;5016103;28;20025;-57
2024/01/01 08:20:19;;;;;;;506.90;254.23;;;;;;;6.32;100.00;97264.22;5016251;28;20108;-57
2024/01/01 08:22:45;;;;;;;491.50;262.05;;;;;;;6.64;100.00;97268.56;5014421;28;20075;-57
2024/01/01 08:25:11;;;;;;;476.63;232.82;;;;;;;6.80;100.00;97268.56;5015701;28;20022;-57
2024/01/01 08:27:36;;;;;;;661.28;293.60;;;;;;;6.63;100.00;97270.31;5015964;28;20029;-57
2024/01/01 08:30:03;;;;;;;440.23;243.43;;;;;;;6.60;100.00;97272.88;5016380;28;20025;-58
2024/01/01 08:32:28;;;;;;;665.33;299.80;;;;;;;6.67;100.00;97271.16;5014515;28;20477;-56
2024/01/01 08:34:54;;;;;;;537.53;319.63;;;;;;;6.67;100.00;97272.88;5015304;28;20568;-58
2024/01/01 08:37:19;;;;;;;559.78;415.30;;;;;;;7.07;100.00;97283.22;5016308;28;20040;-59
2024/01/01 08:39:45;;;;;;;567.55;334.15;;;;;;;6.96;100.00;97287.53;5012658;28;20073;-57
2024/01/01 08:42:10;;;;;;;503.23;262.02;;;;;;;7.40;100.00;97283.19;5013843;28;20560;-57
2024/01/01 08:44:35;;;;;;;527.67;262.52;;;;;;;6.84;100.00;97278.94;5013913;28;20375;-58
2024/01/01 08:47:01;;;;;;;527.50;303.27;;;;;;;7.16;100.00;97296.13;5016223;28;20053;-57
2024/01/01 08:49:26;;;;;;;612.78;288.38;;;;;;;7.06;100.00;97291.84;5014790;28;20061;-57
2024/01/01 08:51:51;;;;;;;503.02;251.80;;;;;;;7.16;100.00;97295.25;5017423;28;20294;-56
2024/01/01 08:54:18;;;;;;;577.63;352.75;;;;;;;7.14;100.00;97295.28;5015918;28;20572;-57
2024/01/01 08:56:44;;;;;;;468.00;233.82;;;;;;;7.49;100.00;97295.22;5012608;28;20386;-58
2024/01/01 08:59:11;;;;;;;454.50;238.48;;;;;;;7.76;100.00;97303.78;5016780;28;20369;-59
2024/01/01 09:01:37;;;;;;;565.60;231.13;;;;;;;7.82;100.00;97298.59;5009679;28;20034;-58
2024/01/01 09:04:04;;;;;;;413.73;239.40;;;;;;;7.88;100.00;97301.16;5018099;28;20071;-59
2024/01/01 09:06:30;;;;;;;557.10;249.77;;;;;;;7.69;100.00;97301.22;5019785;28;20493;-57
2024/01/01 09:08:55;;;;;;;511.55;243.32;;;;;;;7.74;100.00;97308.97;5021474;28;20025;-57
2024/01/01 09:11:21;;;;;;;442.45;248.82;;;;;;;7.66;100.00;97306.41;5022919;28;20049;-57
2024/01/01 09:13:46;;;;;;;463.30;251.15;;;;;;;7.92;100.00;97308.06;5020730;28;20034;-60
2024/01/01 09:16:12;;;;;;;498.98;249.80;;;;;;;8.12;100.00;97308.84;5024293;28;20095;-58
2024/01/01 09:18:38;;;;;;;579.97;268.90;;;;;;;8.02;100.00;97305.44;5022779;28;20060;-58
2024/01/01 09:21:04;;;;;;;464.65;278.70;;;;;;;8.36;100.00;97292.31;5022273;28;20029;-57
2024/01/01 09:23:30;;;;;;;577.70;239.90;;;;;;;8.41;100.00;97300.03;5021550;28;20029;-57
2024/01/01 09:25:58;;;;;;;475.80;240.38;;;;;;;8.36;100.00;97304.41;5022585;28;20033;-57
2024/01/01 09:28:23;;;;;;;463.13;242.60;;;;;;;8.38;100.00;97303.50;5024011;28;20124;-58
2024/01/01 09:30:49;;;;;;;488.88;235.35;;;;;;;8.13;100.00;97311.41;5023084;28;20164;-57
2024/01/01 09:33:14;;;;;;;476.60;285.35;;;;;;;8.59;100.00;97312.06;5022582;28;20075;-58
2024/01/01 09:35:42;;;;;;;533.92;247.93;;;;;;;9.27;100.00;97297.72;5021128;28;20140;-56
2024/01/01 09:38:07;;;;;;;459.45;244.43;;;;;;;9.40;100.00;97298.47;5022997;28;20308;-57
2024/01/01 09:40:33;;;;;;;596.63;345.23;;;;;;;9.45;100.00;97308.78;5020876;28;20037;-58
2024/01/01 09:42:58;;;;;;;486.77;246.13;;;;;;;9.22;100.00;97304.69;5023130;28;20029;-58
2024/01/01 09:45:26;;;;;;;492.42;265.60;;;;;;;9.37;100.00;97311.47;5021783;28;20038;-58
2024/01/01 09:47:51;;;;;;;591.33;446.40;;;;;;;9.41;100.00;97305.38;5023806;28;20572;-56
2024/01/01 09:50:16;;;;;;;548.75;413.27;;;;;;;9.21;100.00;97311.59;5022351;28;20044;-57
2024/01/01 09:52:43;;;;;;;617.15;276.48;;;;;;;9.83;100.00;97315.31;5022488;28;20037;-56
2024/01/01 09:55:08;;;;;;;467.30;251.60;;;;;;;9.67;100.00;97308.56;5022008;28;20025;-58
2024/01/01 09:57:34;;;;;;;543.08;277.50;;;;;;;9.75;100.00;97311.94;5022538;28;20088;-57
2024/01/01 10:00:05;;;;;;;526.05;275.08;;;;;;;9.95;100.00;97305.69;5021968;28;20600;-59
2024/01/01 10:02:30;;;;;;;532.05;282.67;;;;;;;8.32;100.00;97316.50;5021881;28;20049;-58
2024/01/01 10:05:13;;;;;;;481.85;257.73;;;;;;;9.25;100.00;97308.09;5022780;28;20466;-58
2024/01/01 10:07:38;;;;;;;599.42;275.33;;;;;;;9.73;100.00;97301.56;4988179;28;20544;-58
2024/01/01 10:10:04;;;;;;;464.95;280.20;;;;;;;10.32;100.00;97299.16;4989375;28;20034;-60
2024/01/01 10:12:29;;;;;;;569.97;356.70;;;;;;;10.08;100.00;97289.06;4988346;28;20042;-57
2024/01/01 10:14:57;;;;;;;521.28;256.70;;;;;;;9.69;100.00;97279.09;4988089;28;20029;-57
2024/01/01 10:17:22;;;;;;;504.90;250.57;;;;;;;9.99;100.00;97277.03;4989182;28;20494;-58
2024/01/01 10:20:01;;;;;;;580.42;274.02;;;;;;;9.82;100.00;97285.03;4987176;28;20045;-58
2024/01/01 10:22:31;;;;;;;436.48;221.88;;;;;;;10.25;100.00;97287.97;4990996;28;20065;-57
2024/01/01 10:25:25;;;;;;;489.02;233.25;;;;;;;10.12;100.00;97279.47;4990699;28;20049;-58
2024/01/01 10:27:57;;;;;;;513.45;243.27;;;;;;;9.97;100.00;97283.13;5018369;28;20056;-58
2024/01/01 10:30:22;;;;;;;477.63;273.10;;;;;;;9.74;100.00;97287.72;5021179;28;20025;-57
2024/01/01 10:32:49;;;;;;;558.95;420.02;;;;;;;9.99;100.00;97274.44;5019607;28;20764;-58
2024/01/01 10:35:16;;;;;;;509.33;286.30;;;;;;;10.03;100.00;97278.69;5019193;28;20473;-58
2024/01/01 10:37:42;;;;;;;539.55;251.05;;;;;;;10.25;100.00;97278.41;5020005;28;20503;-57
2024/01/01 10:40:14;;;;;;;537.75;386.92;;;;;;;10.23;100.00;97271.53;5020547;28;20025;-58
2024/01/01 10:42:40;;;;;;;633.70;345.53;;;;;;;9.90;100.00;97279.75;5020025;28;20083;-57
2024/01/01 10:45:05;;;;;;;425.50;215.15;;;;;;;10.08;100.00;97280.38;5019794;28;20806;-58
2024/01/01 10:47:31;;;;;;;480.00;332.60;;;;;;;9.85;100.00;97289.34;5018676;28;20033;-58
2024/01/01 10:50:09;;;;;;;509.58;274.67;;;;;;;9.93;100.00;97277.13;5020304;28;20497;-57
2024/01/01 10:52:37;;;;;;;530.42;234.57;;;;;;;10.08;100.00;97281.25;5019116;28;20137;-57
2024/01/01 10:55:42;;;;;;;567.28;377.98;;;;;;;9.87;100.00;97284.97;5019623;28;20045;-56
2024/01/01 10:58:47;;;;;;;507.80;340.00;;;;;;;9.97;100.00;97290.91;5021730;28;20543;-57